Fort Dick, California
Current Conditions -  °F | °C
As of 10:14 AM on Thursday 30 Oct 2014 (Local Time) from KCEC Reporting Station
Overcast Overcast  
Wind Chill: 62°   Ceiling: 800
Heat Index: 62°   Visibility: 8mi
Dew Point: 60°   Wind: 9mph
Humidity: 93%   Direction: 160°SSE
Pressure: 29.91"   Gusts: NA
Location:  41.87°N, 124.15°W
Report Text: KCEC 301714Z AUTO 16008KT 8SM BKN008 OVC014 17/16 A2991 RMK AO2 T01670156
Loading
Personal Weather Stations






























Interactive Weather Map
Tropical Storm Tracking
New forecast layout! Learn more

10-Day Weather Forecast

Advertisements
Track Severe Weather on mobile